< < Back
Terminal Aerodrome Forecast


Current Version              Previous Versions:   1  2  3  4  5  6  7  8  9  

Terminal Aerodrome Forecast

957
FTUS42 KFFC 010100 AAB
TAFATL
TAF AMD
KATL 010158Z 0102/0206 07008KT P6SM -RA SCT012 BKN045
     FM010500 07007KT P6SM BKN018
     FM010800 06007KT P6SM BKN007 PROB30 0112/0115 4SM -RA BR
     FM011500 07006KT 5SM -SHRA BKN015 BKN025
     FM011800 06005KT P6SM -SHRA BKN040=



Latest METAR

844
SAUS70 KWBC 010956
MTRATL
METAR KATL 010952Z 07008KT 8SM OVC005 19/18 A3005 RMK AO2 SLP169 CIG
004V006 T01940183


USA.gov is the U.S. government's official web portal to all federal, state and local government web resources and services.